CheckWX is a tool to help pilots better visualize weather data.  It is not intended as a substitute for an official pre-flight weather briefing.

12:21:54 UTC

VVCI TAF
Cat Bi International Airport
Haiphong, Vietnam
TAF VVCI 221100Z 2212/2312 12007KT 4500 BR SCT007 BKN025 PROB30 TEMPO 2215/2220 2000 DZ BR BKN006 OVC020 BECMG 2301/2302 6000 NSW SCT013 BKN040 BECMG 2305/2306 05010KT

Mar-22@
12:00 UTC

Mar-22 @ 12:00 UTC

Mar-23@
01:00 UTC

Mar-23 @ 01:00 UTC

TAF VVCI 221100Z 2212/2312 12007KT 4500 BR SCT007 BKN025
Wind
  • 120° at 7 KTS
Conditions
Mist
Cloud Levels
  • Scattered at 700' AGL
  • Broken at 2,500' AGL

Mar-22@
15:00 UTC

Mar-22 @ 15:00 UTC

Mar-22@
20:00 UTC

Mar-22 @ 20:00 UTC

PROB30 TEMPO 2215/2220 2000 DZ BR BKN006 OVC020

Temporary - 30% Likelihood

Temporary - 30% Likelihood during this time.

Conditions
Drizzle, Mist
Cloud Levels
  • Broken at 600' AGL
  • Overcast at 2,000' AGL

Mar-23@
01:00 UTC

Mar-23 @ 01:00 UTC

Mar-23@
05:00 UTC

Mar-23 @ 05:00 UTC

BECMG 2301/2302 6000 NSW SCT013 BKN040

Becoming

Becoming Conditions expected by Sat, Mar 23, 2019 @ 02:00 UTC

Wind
  • 120° at 7 KTS
Conditions
No significant weather
Cloud Levels
  • Scattered at 1,300' AGL
  • Broken at 4,000' AGL

Mar-23@
05:00 UTC

Mar-23 @ 05:00 UTC

Mar-23@
12:00 UTC

Mar-23 @ 12:00 UTC

BECMG 2305/2306 05010KT

Becoming

Becoming Conditions expected by Sat, Mar 23, 2019 @ 06:00 UTC

Wind
  • 050° at 10 KTS
Conditions
No significant weather
Cloud Levels
  • Scattered at 1,300' AGL
  • Broken at 4,000' AGL